Airfield :
LOGIN :

Register | Disclaimer

   EN    FR    IT 

 










Legend :    VFR   Marginal VFR   IFR   Intensive IFR   Very Intensive IFR
Visi :
Ceiling :
>= 8 km
>= 3000ft
5 to 8 km
1000 to 3000 ft
1500m to 5 km
500 to 1000 ft
800 to 1500m
200 to 500 ft
< 800m
< 200 ft
Symbols :   Thunderstorms  Fog  Heavy snow  Heavy precipitations  Wind > 20 kt
SIGMETs :     Misc.  Thunderstorms  Icing  Turbulence  Mountain Waves  Volcanic Ashes






- Airport Elevation : 236 ft
- IATA code : MMX


ESMS - Malmö Sturup

CURRENT METAR :
  • 231750Z 20005KT 4000 BR BKN004 15/14 Q1013

EXPIRED METARs :
  • 231720Z 15004KT 8000 BKN007 16/15 Q1013
  • 231650Z 10003KT 6000 -DZ BKN005 15/15 Q1013
  • 231620Z 13005KT 090V160 8000 -RA FEW008 15/14 Q1013
  • 231550Z 13005KT 9999 -RA VV007 15/14 Q1013
  • 231520Z 14005KT 9999 -DZ SCT011 BKN023 15/13 Q1013
  • 231450Z 16009KT 9999 -DZ FEW010 SCT013 BKN017 15/13 Q1013
  • 231420Z 10005KT 060V120 9999 BKN035 18/14 Q1013
  • 231350Z 08005KT 9999 BKN040 18/14 Q1012
  • 231320Z 10006KT 9999 SCT045 19/14 Q1012

TAF TAF ESMS
Valid from the 23 at 18:00 until the 24 at 18:00 UTC


231713Z 2318/2418 29006KT 9999 BKN020
TEMPO 2318/2322 2500 RA BKN004 SCT030CB
BECMG 2322/2324 2000 BR
TEMPO 2400/2405 5000 NSW BKN005
BECMG 2405/2407 9999 NSW



MET'MAP, your aeronautical weather chart ! - Copyright ORBIFLY December 2007 - Disclaimer

ORBIFLY MET'MAP TEAM :

Programming & Development : Alexandra Zaïnal
Original concept : Baudouin d'Aumeries
Technical & hardware support : Manuel Goepfert
Assistance : Marc-Olivier Méhu




SOURCES & CREDITS :

   NOAA